Kanawha Head, West Virginia
Current Conditions -  °F | °C
As of 10:15 PM on Monday 20 Oct 2014 (Local Time) from KW22 Reporting Station
Broken Clouds Broken Clouds  
Wind Chill: 50°   Ceiling: 5500
Heat Index: 50°   Visibility: 10mi
Dew Point: 48°   Wind: 0mph
Humidity: 94%   Direction: NA
Pressure: 29.93"   Gusts: NA
Location:  38.77°N, 80.35°W
Report Text: KW22 210215Z AUTO 00000KT 10SM BKN055 BKN065 BKN080 10/09 A2993 RMK AO2
Loading
Personal Weather Stations






























Interactive Weather Map
Tropical Storm Tracking
New forecast layout! Learn more

10-Day Weather Forecast

Advertisements
Track Severe Weather on mobile